createdAt,value
2023-11-24T00:00:06.132Z,10.73
2023-11-24T00:02:39.703Z,12.80
2023-11-24T00:05:08.560Z,12.25
2023-11-24T00:07:36.833Z,12.48
2023-11-24T00:10:08.160Z,11.68
2023-11-24T00:12:35.589Z,12.85
2023-11-24T00:15:05.388Z,12.60
2023-11-24T00:17:34.718Z,12.05
2023-11-24T00:20:02.154Z,12.77
2023-11-24T00:22:30.217Z,11.52
2023-11-24T00:24:58.964Z,12.35
2023-11-24T00:27:26.525Z,13.10
2023-11-24T00:29:54.152Z,13.23
2023-11-24T00:32:21.720Z,13.52
2023-11-24T00:34:49.359Z,12.45
2023-11-24T00:37:18.804Z,12.32
2023-11-24T00:39:46.485Z,12.35
2023-11-24T00:42:14.373Z,11.55
2023-11-24T00:44:42.268Z,11.82
2023-11-24T00:47:10.230Z,11.95
2023-11-24T00:49:38.117Z,13.82
2023-11-24T00:52:07.007Z,11.93
2023-11-24T00:54:35.745Z,11.23
2023-11-24T00:57:06.329Z,12.32
2023-11-24T00:59:33.464Z,12.60
2023-11-24T01:02:00.539Z,13.57
2023-11-24T01:04:28.489Z,12.15
2023-11-24T01:06:56.135Z,14.20
2023-11-24T01:09:25.240Z,13.13
2023-11-24T01:11:52.725Z,12.18
2023-11-24T01:14:21.868Z,12.10
2023-11-24T01:16:49.495Z,13.70
2023-11-24T01:19:17.358Z,13.27
2023-11-24T01:21:44.581Z,11.63
2023-11-24T01:24:12.548Z,12.77
2023-11-24T01:26:39.979Z,10.75
2023-11-24T01:29:26.814Z,11.05
2023-11-24T01:31:54.652Z,12.57
2023-11-24T01:34:22.943Z,12.63
2023-11-24T01:36:50.786Z,11.40
2023-11-24T01:39:18.533Z,11.88
2023-11-24T01:41:47.026Z,12.63
2023-11-24T01:44:14.635Z,13.50
2023-11-24T01:46:42.040Z,12.35
2023-11-24T01:49:11.407Z,11.80
2023-11-24T01:51:39.846Z,13.60
2023-11-24T01:54:07.435Z,11.98
2023-11-24T01:56:35.306Z,12.32
2023-11-24T01:59:03.303Z,13.13
2023-11-24T02:01:32.917Z,11.23
2023-11-24T02:04:02.613Z,12.63
2023-11-24T02:06:30.346Z,11.77
2023-11-24T02:08:57.588Z,12.93
2023-11-24T02:11:24.950Z,13.62
2023-11-24T02:13:52.200Z,11.07
2023-11-24T02:16:19.606Z,11.73
2023-11-24T02:18:48.762Z,12.90
2023-11-24T02:21:16.628Z,12.37
2023-11-24T02:23:44.548Z,12.10
2023-11-24T02:26:12.108Z,13.30
2023-11-24T02:28:39.714Z,13.10
2023-11-24T02:31:09.091Z,12.80
2023-11-24T02:33:43.756Z,12.88
2023-11-24T02:36:18.781Z,12.73
2023-11-24T02:38:47.878Z,12.20
2023-11-24T02:41:16.542Z,16.00
2023-11-24T02:43:44.713Z,14.30
2023-11-24T02:46:16.304Z,14.13
2023-11-24T02:48:45.549Z,15.38
2023-11-24T02:51:13.216Z,12.32
2023-11-24T02:53:40.714Z,14.57
2023-11-24T02:56:09.144Z,13.20
2023-11-24T02:58:37.902Z,12.85
2023-11-24T03:01:06.820Z,14.00
2023-11-24T03:03:35.569Z,12.85
2023-11-24T03:06:07.426Z,12.37
2023-11-24T03:08:36.019Z,15.52
2023-11-24T03:11:07.517Z,13.25
2023-11-24T03:13:35.524Z,13.23
2023-11-24T03:16:05.503Z,14.13
2023-11-24T03:18:32.799Z,13.98
2023-11-24T03:21:00.930Z,14.63
2023-11-24T03:23:27.940Z,14.55
2023-11-24T03:25:55.601Z,13.10
2023-11-24T03:28:22.975Z,13.95
2023-11-24T03:30:51.446Z,13.57
2023-11-24T03:33:19.595Z,14.38
2023-11-24T03:35:47.892Z,13.35
2023-11-24T03:38:15.756Z,13.13
2023-11-24T03:40:44.183Z,14.23
2023-11-24T03:43:16.840Z,14.35
2023-11-24T03:45:44.822Z,13.80
2023-11-24T03:48:13.232Z,13.05
2023-11-24T03:50:40.807Z,13.23
2023-11-24T03:53:08.965Z,13.13
2023-11-24T03:55:37.076Z,11.38
2023-11-24T03:58:05.513Z,13.88
2023-11-24T04:00:33.172Z,14.63
2023-11-24T04:03:01.136Z,14.10
2023-11-24T04:05:28.970Z,14.50
2023-11-24T04:07:56.598Z,13.68
2023-11-24T04:10:26.207Z,13.45
2023-11-24T04:13:00.845Z,12.85
2023-11-24T04:15:28.341Z,13.50
2023-11-24T04:17:56.140Z,13.30
2023-11-24T04:20:23.246Z,13.60
2023-11-24T04:22:50.843Z,13.00
2023-11-24T04:25:19.897Z,12.65
2023-11-24T04:27:46.955Z,12.82
2023-11-24T04:30:16.131Z,14.02
2023-11-24T04:32:44.946Z,13.43
2023-11-24T04:35:12.060Z,13.70
2023-11-24T04:37:39.405Z,14.48
2023-11-24T04:40:10.675Z,12.40
2023-11-24T04:42:37.838Z,14.18
2023-11-24T04:45:07.925Z,13.65
2023-11-24T04:47:35.475Z,14.55
2023-11-24T04:50:03.402Z,14.43
2023-11-24T04:52:30.747Z,15.18
2023-11-24T04:55:01.415Z,13.75
2023-11-24T04:57:28.495Z,13.75
2023-11-24T04:59:55.819Z,13.02
2023-11-24T05:02:25.161Z,12.40
2023-11-24T05:04:52.749Z,12.95
2023-11-24T05:07:22.397Z,14.70
2023-11-24T05:09:50.194Z,13.07
2023-11-24T05:12:17.355Z,13.85
2023-11-24T05:14:45.840Z,12.82
2023-11-24T05:17:13.956Z,12.13
2023-11-24T05:19:43.073Z,13.60
2023-11-24T05:22:10.468Z,13.23
2023-11-24T05:24:40.494Z,15.10
2023-11-24T05:27:08.354Z,12.68
2023-11-24T05:29:35.910Z,12.85
2023-11-24T05:32:03.760Z,11.70
2023-11-24T05:34:30.837Z,12.10
2023-11-24T05:37:04.361Z,13.38
2023-11-24T05:39:31.985Z,13.57
2023-11-24T05:41:59.633Z,12.73
2023-11-24T05:44:28.048Z,12.07
2023-11-24T05:46:55.280Z,11.50
2023-11-24T05:49:22.735Z,12.52
2023-11-24T05:51:50.431Z,12.18
2023-11-24T05:54:17.972Z,13.45
2023-11-24T05:56:45.856Z,13.30
2023-11-24T05:59:13.497Z,15.60
2023-11-24T06:01:43.227Z,13.65
2023-11-24T06:04:11.696Z,14.30
2023-11-24T06:06:38.970Z,13.15
2023-11-24T06:09:07.492Z,13.93
2023-11-24T06:11:36.252Z,13.23
2023-11-24T06:14:06.652Z,15.63
2023-11-24T06:16:34.516Z,13.10
2023-11-24T06:19:02.729Z,13.00
2023-11-24T06:21:30.729Z,13.05
2023-11-24T06:23:58.947Z,11.57
2023-11-24T06:26:32.179Z,10.25
2023-11-24T06:29:01.399Z,13.02
2023-11-24T06:31:30.768Z,16.98
2023-11-24T06:33:58.081Z,16.60
2023-11-24T06:36:25.731Z,16.40
2023-11-24T06:38:53.660Z,15.25
2023-11-24T06:41:21.380Z,16.73
2023-11-24T06:43:49.013Z,17.52
2023-11-24T06:46:16.998Z,14.85
2023-11-24T06:48:45.408Z,16.55
2023-11-24T06:51:12.995Z,16.83
2023-11-24T06:53:41.999Z,14.25
2023-11-24T06:56:11.629Z,12.60
2023-11-24T06:58:40.340Z,11.20
2023-11-24T07:01:08.779Z,9.43
2023-11-24T07:03:36.878Z,9.18
2023-11-24T07:06:06.203Z,7.40
2023-11-24T07:08:43.132Z,8.80
2023-11-24T07:11:10.875Z,8.43
2023-11-24T07:13:45.011Z,7.40
2023-11-24T07:16:12.675Z,8.10
2023-11-24T07:18:40.358Z,8.70
2023-11-24T07:21:08.130Z,7.37
2023-11-24T07:23:38.552Z,6.85
2023-11-24T07:26:09.119Z,7.20
2023-11-24T07:28:36.957Z,7.15
2023-11-24T07:31:05.528Z,3.33
2023-11-24T07:33:34.337Z,2.58
2023-11-24T07:36:02.190Z,3.28
2023-11-24T07:38:30.946Z,3.78
2023-11-24T07:40:58.971Z,3.20
2023-11-24T07:43:29.123Z,3.17
2023-11-24T07:45:56.274Z,3.97
2023-11-24T07:48:24.006Z,3.03
2023-11-24T07:50:51.582Z,3.05
2023-11-24T07:53:22.370Z,2.92
2023-11-24T07:55:50.516Z,3.55
2023-11-24T07:58:18.407Z,2.53
2023-11-24T08:00:46.775Z,2.42
2023-11-24T08:03:18.375Z,2.92
2023-11-24T08:05:50.690Z,2.45
2023-11-24T08:08:18.423Z,2.20
2023-11-24T08:10:46.018Z,2.58
2023-11-24T08:13:13.357Z,2.70
2023-11-24T08:15:40.872Z,2.53
2023-11-24T08:18:11.545Z,2.17
2023-11-24T08:20:38.731Z,2.25
2023-11-24T08:23:06.473Z,1.58
2023-11-24T08:25:33.583Z,1.80
2023-11-24T08:28:00.677Z,1.73
2023-11-24T08:30:33.422Z,1.35
2023-11-24T08:33:00.850Z,1.20
2023-11-24T08:35:30.675Z,0.90
2023-11-24T08:37:58.676Z,0.85
2023-11-24T08:40:28.109Z,1.50
2023-11-24T08:42:57.740Z,1.12
2023-11-24T08:45:26.108Z,1.23
2023-11-24T08:47:53.242Z,0.90
2023-11-24T08:50:20.766Z,0.40
2023-11-24T08:52:51.457Z,0.70
2023-11-24T08:55:18.800Z,0.68
2023-11-24T08:57:48.532Z,0.47
2023-11-24T09:00:16.635Z,0.40
2023-11-24T09:02:44.956Z,0.30
2023-11-24T09:05:12.527Z,0.60
2023-11-24T09:07:39.595Z,0.30
2023-11-24T09:10:09.846Z,0.68
2023-11-24T09:12:39.230Z,0.28
2023-11-24T09:15:11.793Z,0.22
2023-11-24T09:17:39.344Z,0.37
2023-11-24T09:20:09.713Z,0.73
2023-11-24T09:22:40.106Z,0.22
2023-11-24T09:25:10.055Z,0.28
2023-11-24T09:27:37.474Z,0.20
2023-11-24T09:30:12.970Z,0.20
2023-11-24T09:32:44.209Z,0.20
2023-11-24T09:35:12.313Z,0.10
2023-11-24T09:37:40.025Z,0.30
2023-11-24T09:40:14.253Z,0.20
2023-11-24T09:42:48.618Z,0.10
2023-11-24T09:45:22.179Z,0.17
2023-11-24T09:47:51.557Z,0.20
2023-11-24T09:50:26.300Z,0.30
2023-11-24T09:52:58.638Z,0.73
2023-11-24T09:55:28.305Z,0.40
2023-11-24T09:57:57.771Z,0.30
2023-11-24T10:00:27.768Z,0.90
2023-11-24T10:03:00.256Z,0.62
2023-11-24T10:05:27.827Z,0.30
2023-11-24T10:07:58.496Z,0.50
2023-11-24T10:10:30.086Z,0.30
2023-11-24T10:13:04.273Z,0.40
2023-11-24T10:15:33.350Z,0.37
2023-11-24T10:18:00.984Z,0.45
2023-11-24T10:20:31.442Z,0.20
2023-11-24T10:23:01.655Z,1.05
2023-11-24T10:25:40.226Z,0.25
2023-11-24T10:28:09.925Z,0.50
2023-11-24T10:30:37.871Z,0.57
2023-11-24T10:33:07.123Z,0.50
2023-11-24T10:35:36.560Z,0.52
2023-11-24T10:38:05.577Z,0.30
2023-11-24T10:40:34.284Z,0.37
2023-11-24T10:43:04.526Z,0.50
2023-11-24T10:45:33.392Z,0.82
2023-11-24T10:48:16.725Z,0.50
2023-11-24T10:51:21.536Z,0.20
2023-11-24T10:56:32.380Z,0.50
2023-11-24T10:59:00.808Z,0.47
2023-11-24T11:01:29.198Z,0.90
2023-11-24T11:03:57.132Z,0.55
2023-11-24T11:07:08.427Z,0.90
2023-11-24T11:09:59.687Z,0.50
2023-11-24T11:12:54.387Z,0.50
2023-11-24T11:18:15.663Z,1.05
2023-11-24T11:20:56.343Z,0.60
2023-11-24T11:23:27.138Z,0.75
2023-11-24T11:25:59.391Z,0.57
2023-11-24T11:28:40.724Z,0.55
2023-11-24T11:31:35.415Z,0.75
2023-11-24T11:34:19.509Z,0.30
2023-11-24T11:37:09.821Z,0.45
2023-11-24T11:39:48.759Z,0.62
2023-11-24T11:42:16.892Z,0.88
2023-11-24T11:44:50.380Z,0.95
2023-11-24T11:47:19.072Z,0.70
2023-11-24T11:49:52.815Z,0.77
2023-11-24T11:52:27.216Z,0.70
2023-11-24T11:55:02.052Z,0.75
2023-11-24T11:57:31.444Z,0.65
2023-11-24T11:59:59.098Z,0.70
2023-11-24T12:02:30.842Z,0.88
2023-11-24T12:04:59.094Z,0.50
2023-11-24T12:07:32.962Z,0.62
2023-11-24T12:10:01.001Z,0.50
2023-11-24T12:12:30.838Z,1.17
2023-11-24T12:14:57.924Z,0.98
2023-11-24T12:17:28.193Z,0.70
2023-11-24T12:19:57.302Z,0.43
2023-11-24T12:22:25.932Z,0.77
2023-11-24T12:24:54.512Z,1.00
2023-11-24T12:27:28.500Z,1.03
2023-11-24T12:29:56.430Z,0.93
2023-11-24T12:32:25.942Z,1.58
2023-11-24T12:34:53.703Z,0.90
2023-11-24T12:37:24.476Z,0.88
2023-11-24T12:39:52.256Z,0.73
2023-11-24T12:42:19.329Z,0.90
2023-11-24T12:44:49.394Z,0.55
2023-11-24T12:50:07.897Z,1.02
2023-11-24T12:52:37.262Z,1.00
2023-11-24T12:55:08.861Z,1.20
2023-11-24T12:57:40.300Z,1.08
2023-11-24T13:00:14.769Z,1.10
2023-11-24T13:02:42.983Z,0.52
2023-11-24T13:05:12.459Z,0.85
2023-11-24T13:07:43.210Z,1.00
2023-11-24T13:10:12.535Z,0.90
2023-11-24T13:12:42.102Z,1.62
2023-11-24T13:15:10.744Z,1.92
2023-11-24T13:17:39.836Z,1.85
2023-11-24T13:20:12.619Z,1.67
2023-11-24T13:22:44.711Z,1.40
2023-11-24T13:25:12.816Z,1.75
2023-11-24T13:27:42.651Z,1.52
2023-11-24T13:30:13.064Z,1.15
2023-11-24T13:32:42.764Z,1.17
2023-11-24T13:35:20.304Z,0.88
2023-11-24T13:37:49.354Z,0.88
2023-11-24T13:40:27.773Z,1.50
2023-11-24T13:42:56.131Z,1.02
2023-11-24T13:45:28.764Z,0.98
2023-11-24T13:47:59.890Z,1.73
2023-11-24T13:50:28.960Z,3.15
2023-11-24T13:52:57.572Z,2.05
2023-11-24T13:55:35.047Z,2.08
2023-11-24T13:58:04.552Z,1.33
2023-11-24T14:00:34.794Z,2.03
2023-11-24T14:03:22.022Z,1.80
2023-11-24T14:05:49.633Z,1.05
2023-11-24T14:08:17.394Z,1.58
2023-11-24T14:10:48.968Z,1.12
2023-11-24T14:13:16.637Z,0.90
2023-11-24T14:15:46.639Z,1.73
2023-11-24T14:18:15.837Z,1.37
2023-11-24T14:20:47.330Z,1.35
2023-11-24T14:23:15.211Z,1.50
2023-11-24T14:25:45.298Z,1.02
2023-11-24T14:28:13.423Z,1.30
2023-11-24T14:30:43.554Z,1.55
2023-11-24T14:33:12.633Z,1.27
2023-11-24T14:35:42.941Z,1.15
2023-11-24T14:38:10.949Z,1.42
2023-11-24T14:40:40.475Z,1.58
2023-11-24T14:43:08.813Z,1.67
2023-11-24T14:45:48.695Z,1.42
2023-11-24T14:48:17.979Z,1.98
2023-11-24T14:50:45.359Z,1.60
2023-11-24T14:53:15.133Z,1.98
2023-11-24T14:55:46.301Z,2.30
2023-11-24T14:58:17.065Z,2.58
2023-11-24T15:00:46.057Z,1.62
2023-11-24T15:03:16.299Z,1.90
2023-11-24T15:05:51.281Z,2.17
2023-11-24T15:08:20.089Z,2.12
2023-11-24T15:10:50.614Z,2.25
2023-11-24T15:13:23.959Z,1.83
2023-11-24T15:15:53.688Z,2.30
2023-11-24T15:18:23.760Z,3.22
2023-11-24T15:20:57.399Z,3.17
2023-11-24T15:23:25.403Z,2.67
2023-11-24T15:25:55.531Z,2.65
2023-11-24T15:28:24.353Z,2.60
2023-11-24T15:30:54.953Z,2.10
2023-11-24T15:33:22.366Z,2.03
2023-11-24T15:35:50.606Z,2.03
2023-11-24T15:38:20.928Z,1.98
2023-11-24T15:40:52.338Z,2.30
2023-11-24T15:43:22.406Z,2.47
2023-11-24T15:45:53.337Z,2.35
2023-11-24T15:48:22.750Z,2.12
2023-11-24T15:50:50.399Z,2.40
2023-11-24T15:53:21.084Z,2.72
2023-11-24T15:55:50.810Z,2.05
2023-11-24T15:58:19.178Z,1.90
2023-11-24T16:00:50.505Z,2.83
2023-11-24T16:03:21.863Z,2.83
2023-11-24T16:05:52.253Z,3.10
2023-11-24T16:08:24.286Z,3.40
2023-11-24T16:10:57.608Z,2.90
2023-11-24T16:13:25.125Z,2.78
2023-11-24T16:15:52.830Z,2.78
2023-11-24T16:18:32.563Z,2.42
2023-11-24T16:21:03.708Z,2.95
2023-11-24T16:23:34.099Z,2.62
2023-11-24T16:26:01.626Z,3.05
2023-11-24T16:28:29.071Z,3.42
2023-11-24T16:30:57.271Z,3.22
2023-11-24T16:33:25.869Z,4.50
2023-11-24T16:35:57.615Z,5.32
2023-11-24T16:38:24.716Z,7.15
2023-11-24T16:40:52.691Z,16.12
2023-11-24T16:43:21.994Z,19.55
2023-11-24T16:45:49.714Z,17.02
2023-11-24T16:48:21.195Z,15.00
2023-11-24T16:50:51.558Z,13.93
2023-11-24T16:53:19.832Z,13.62
2023-11-24T16:55:48.403Z,13.38
2023-11-24T16:58:16.358Z,13.88
2023-11-24T17:00:46.487Z,14.43
2023-11-24T17:03:16.684Z,11.43
2023-11-24T17:05:44.777Z,14.23
2023-11-24T17:08:11.951Z,18.75
2023-11-24T17:10:39.647Z,16.85
2023-11-24T17:13:07.875Z,11.60
2023-11-24T17:15:36.085Z,10.02
2023-11-24T17:18:07.589Z,10.95
2023-11-24T17:20:36.353Z,12.05
2023-11-24T17:23:05.103Z,9.13
2023-11-24T17:25:36.971Z,9.35
2023-11-24T17:28:05.186Z,8.07
2023-11-24T17:30:32.930Z,7.22
2023-11-24T17:33:01.730Z,6.82
2023-11-24T17:35:29.834Z,6.60
2023-11-24T17:37:58.191Z,5.50
2023-11-24T17:40:27.834Z,5.57
2023-11-24T17:42:56.181Z,4.22
2023-11-24T17:45:23.339Z,4.03
2023-11-24T17:47:53.411Z,4.35
2023-11-24T17:50:21.806Z,4.12
2023-11-24T17:52:50.446Z,4.57
2023-11-24T17:55:21.653Z,3.58
2023-11-24T17:57:52.793Z,3.42
2023-11-24T18:00:23.521Z,4.15
2023-11-24T18:02:51.968Z,5.85
2023-11-24T18:05:22.744Z,8.27
2023-11-24T18:07:50.489Z,6.72
2023-11-24T18:10:19.688Z,4.43
2023-11-24T18:12:54.607Z,3.65
2023-11-24T18:15:22.901Z,4.03
2023-11-24T18:17:50.086Z,3.85
2023-11-24T18:20:18.796Z,4.90
2023-11-24T18:22:46.787Z,4.37
2023-11-24T18:25:14.630Z,4.37
2023-11-24T18:27:41.878Z,4.72
2023-11-24T18:30:11.190Z,4.90
2023-11-24T18:32:40.339Z,4.82
2023-11-24T18:35:09.718Z,3.62
2023-11-24T18:37:38.526Z,4.30
2023-11-24T18:40:09.433Z,3.92
2023-11-24T18:42:37.578Z,4.22
2023-11-24T18:45:10.133Z,3.30
2023-11-24T18:47:40.005Z,3.42
2023-11-24T18:50:16.317Z,3.50
2023-11-24T18:52:43.830Z,4.65
2023-11-24T18:55:13.500Z,4.32
2023-11-24T18:57:46.791Z,3.20
2023-11-24T19:00:23.547Z,2.65
2023-11-24T19:02:54.199Z,2.70
2023-11-24T19:05:21.663Z,2.80
2023-11-24T19:07:51.059Z,4.40
2023-11-24T19:10:19.595Z,5.37
2023-11-24T19:12:49.898Z,6.32
2023-11-24T19:15:17.683Z,5.30
2023-11-24T19:17:44.920Z,4.20
2023-11-24T19:20:12.700Z,4.78
2023-11-24T19:22:41.380Z,3.55
2023-11-24T19:25:09.929Z,3.80
2023-11-24T19:27:38.614Z,3.40
2023-11-24T19:30:06.880Z,2.40
2023-11-24T19:32:34.597Z,2.47
2023-11-24T19:35:03.018Z,2.65
2023-11-24T19:37:31.013Z,3.10
2023-11-24T19:39:58.191Z,1.85
2023-11-24T19:42:25.627Z,2.25
2023-11-24T19:44:59.660Z,2.30
2023-11-24T19:47:30.966Z,2.25
2023-11-24T19:49:58.740Z,3.67
2023-11-24T19:52:27.472Z,3.97
2023-11-24T19:54:55.443Z,3.67
2023-11-24T19:57:24.319Z,4.32
2023-11-24T19:59:55.933Z,4.57
2023-11-24T20:02:28.715Z,4.28
2023-11-24T20:04:57.688Z,4.12
2023-11-24T20:07:29.122Z,3.17
2023-11-24T20:09:56.608Z,3.58
2023-11-24T20:12:23.955Z,3.87
2023-11-24T20:14:54.522Z,3.00
2023-11-24T20:17:25.002Z,2.90
2023-11-24T20:19:53.725Z,2.62
2023-11-24T20:22:21.277Z,3.08
2023-11-24T20:24:49.008Z,2.85
2023-11-24T20:27:17.803Z,2.40
2023-11-24T20:29:46.524Z,2.10
2023-11-24T20:32:16.158Z,1.48
2023-11-24T20:34:43.384Z,1.45
2023-11-24T20:37:11.151Z,1.65
2023-11-24T20:39:39.626Z,1.52
2023-11-24T20:42:06.944Z,1.80
2023-11-24T20:44:34.743Z,1.80
2023-11-24T20:47:02.287Z,2.12
2023-11-24T20:49:29.616Z,1.67
2023-11-24T20:51:58.308Z,1.40
2023-11-24T20:54:25.905Z,1.58
2023-11-24T20:56:53.037Z,1.27
2023-11-24T20:59:22.568Z,1.55
2023-11-24T21:01:50.402Z,2.20
2023-11-24T21:04:17.718Z,1.90
2023-11-24T21:06:47.046Z,2.10
2023-11-24T21:09:17.516Z,2.20
2023-11-24T21:11:46.835Z,2.03
2023-11-24T21:14:17.072Z,2.17
2023-11-24T21:16:44.980Z,1.65
2023-11-24T21:19:20.289Z,2.17
2023-11-24T21:21:48.281Z,1.98
2023-11-24T21:24:16.811Z,1.77
2023-11-24T21:26:45.854Z,1.62
2023-11-24T21:29:13.830Z,1.80
2023-11-24T21:31:40.954Z,2.30
2023-11-24T21:34:11.123Z,2.08
2023-11-24T21:36:41.693Z,2.08
2023-11-24T21:39:10.232Z,1.40
2023-11-24T21:41:37.972Z,1.67
2023-11-24T21:44:08.968Z,1.98
2023-11-24T21:46:39.744Z,2.45
2023-11-24T21:49:09.951Z,2.05
2023-11-24T21:51:40.709Z,2.22
2023-11-24T21:54:08.595Z,1.83
2023-11-24T21:56:36.957Z,2.30
2023-11-24T21:59:04.950Z,2.42
2023-11-24T22:01:33.548Z,1.92
2023-11-24T22:04:01.778Z,1.73
2023-11-24T22:06:35.340Z,1.67
2023-11-24T22:09:06.938Z,1.95
2023-11-24T22:11:34.978Z,1.85
2023-11-24T22:14:02.412Z,1.73
2023-11-24T22:16:30.794Z,1.40
2023-11-24T22:18:57.989Z,1.42
2023-11-24T22:21:26.256Z,1.10
2023-11-24T22:23:54.042Z,1.23
2023-11-24T22:26:25.024Z,1.62
2023-11-24T22:28:53.556Z,1.27
2023-11-24T22:31:21.500Z,1.67
2023-11-24T22:33:49.550Z,1.55
2023-11-24T22:36:21.354Z,1.40
2023-11-24T22:38:50.413Z,1.35
2023-11-24T22:41:18.995Z,1.48
2023-11-24T22:43:46.622Z,1.75
2023-11-24T22:46:28.014Z,1.92
2023-11-24T22:48:55.998Z,1.62
2023-11-24T22:51:27.315Z,1.80
2023-11-24T22:53:55.100Z,1.52
2023-11-24T22:56:24.779Z,1.60
2023-11-24T22:58:53.783Z,1.87
2023-11-24T23:01:23.395Z,2.03
2023-11-24T23:03:52.171Z,1.65
2023-11-24T23:06:19.740Z,2.15
2023-11-24T23:08:47.738Z,2.17
2023-11-24T23:11:18.750Z,1.50
2023-11-24T23:13:49.175Z,2.37
2023-11-24T23:16:19.031Z,1.67
2023-11-24T23:18:47.085Z,1.95
2023-11-24T23:21:19.182Z,2.05
2023-11-24T23:26:17.018Z,1.50
2023-11-24T23:28:44.568Z,1.95
2023-11-24T23:31:13.710Z,2.00
2023-11-24T23:33:43.209Z,1.48
2023-11-24T23:36:14.131Z,1.67
2023-11-24T23:38:42.809Z,1.50
2023-11-24T23:41:11.545Z,1.30
2023-11-24T23:43:39.052Z,1.58
2023-11-24T23:46:08.292Z,1.55
2023-11-24T23:48:36.228Z,1.98
2023-11-24T23:51:07.270Z,1.60
2023-11-24T23:53:34.901Z,1.55
2023-11-24T23:56:02.837Z,1.00
2023-11-24T23:58:30.047Z,1.02
